Time;durP1;ratioP1;P1;durP2;ratioP2;P2;SDS_P1;SDS_P2;PMS_P1;PMS_P2;Temp;Humidity;BMP_temperature;BMP_pressure;BME280_temperature;BME280_humidity;BME280_pressure;Samples;Min_cycle;Max_cycle;Signal;HPM_P1;HPM_P2
2022/10/31 00:01:34;;;;;;;;;;;;;;;10.45;49.74;96009.06;4997010;28;19981;-67
2022/10/31 00:03:59;;;;;;;;;;;;;;;10.36;49.55;96014.38;4996827;28;19993;-67
2022/10/31 00:06:25;;;;;;;;;;;;;;;10.43;49.68;96011.03;4996909;28;19990;-68
2022/10/31 00:08:54;;;;;;;;;;;;;;;10.53;49.65;96005.53;4997312;28;19969;-67
2022/10/31 00:11:19;;;;;;;;;;;;;;;10.41;49.68;96011.22;4996549;28;19990;-67
2022/10/31 00:13:44;;;;;;;;;;;;;;;10.50;49.38;96009.38;4996551;28;20585;-67
2022/10/31 00:16:13;;;;;;;;;;;;;;;10.49;49.21;96005.06;4996773;28;19973;-67
2022/10/31 00:18:39;;;;;;;;;;;;;;;10.64;49.74;96002.53;4997291;28;20029;-67
2022/10/31 00:21:04;;;;;;;;;;;;;;;10.91;49.11;96000.47;4996582;28;20290;-68
2022/10/31 00:23:29;;;;;;;;;;;;;;;11.03;48.01;96003.63;4997174;28;19990;-67
2022/10/31 00:25:59;;;;;;;;;;;;;;;11.29;47.21;96004.41;4997012;28;20281;-68
2022/10/31 00:28:24;;;;;;;;;;;;;;;11.49;45.72;96002.16;4997507;28;19992;-68
2022/10/31 00:30:50;;;;;;;;;;;;;;;11.57;45.57;95994.09;4997058;28;20491;-68
2022/10/31 00:33:15;;;;;;;;;;;;;;;11.60;45.30;95993.72;4998582;28;20527;-68
2022/10/31 00:35:40;;;;;;;;;;;;;;;11.60;44.54;95991.06;4997107;28;20484;-68
2022/10/31 00:38:05;;;;;;;;;;;;;;;11.62;44.26;95993.56;4997982;28;20116;-67
2022/10/31 00:40:30;;;;;;;;;;;;;;;11.68;44.39;96000.88;4998467;28;19981;-67
2022/10/31 00:42:56;;;;;;;;;;;;;;;11.64;44.63;95988.88;4996533;28;20031;-67
2022/10/31 00:45:21;;;;;;;;;;;;;;;11.68;44.52;95986.69;4997508;28;20304;-68
2022/10/31 00:47:46;;;;;;;;;;;;;;;11.64;44.88;95971.06;4996355;28;20005;-67
2022/10/31 00:50:11;;;;;;;;;;;;;;;11.61;43.75;95975.91;4996760;28;19993;-67
2022/10/31 00:52:37;;;;;;;;;;;;;;;11.56;44.24;95981.75;4997710;28;19998;-68
2022/10/31 00:55:02;;;;;;;;;;;;;;;11.40;46.80;95985.34;4997281;28;20526;-68
2022/10/31 00:57:27;;;;;;;;;;;;;;;11.38;47.10;95982.00;4998595;28;20005;-67
2022/10/31 00:59:52;;;;;;;;;;;;;;;11.37;45.29;95977.69;4997010;28;20754;-67
2022/10/31 01:02:18;;;;;;;;;;;;;;;11.41;45.38;95979.00;4994072;28;20402;-67
2022/10/31 01:04:44;;;;;;;;;;;;;;;11.42;45.25;95987.84;4998600;28;19974;-67
2022/10/31 01:07:11;;;;;;;;;;;;;;;11.32;44.81;95991.53;4996648;28;19997;-67
2022/10/31 01:09:36;;;;;;;;;;;;;;;11.28;44.21;95990.22;4998089;28;20482;-67
2022/10/31 01:12:01;;;;;;;;;;;;;;;11.25;44.32;95996.75;4997102;28;20505;-67
2022/10/31 01:14:27;;;;;;;;;;;;;;;11.16;44.71;95994.28;4997271;28;20245;-68
2022/10/31 01:16:52;;;;;;;;;;;;;;;11.02;48.13;95999.31;4997153;28;20630;-68
2022/10/31 01:19:17;;;;;;;;;;;;;;;10.93;49.16;96001.16;4997202;28;19996;-67
2022/10/31 01:21:42;;;;;;;;;;;;;;;10.82;49.13;96007.69;4996897;28;19980;-67
2022/10/31 01:24:08;;;;;;;;;;;;;;;10.61;48.78;96006.38;4997033;28;20445;-67
2022/10/31 01:26:33;;;;;;;;;;;;;;;10.57;48.77;96004.22;4997295;28;20447;-67
2022/10/31 01:29:03;;;;;;;;;;;;;;;10.71;49.45;96000.84;4997774;28;20031;-67
2022/10/31 01:31:29;;;;;;;;;;;;;;;10.65;49.99;95995.38;4997078;28;20033;-67
2022/10/31 01:33:54;;;;;;;;;;;;;;;10.93;48.58;95993.16;4996222;28;20344;-67
2022/10/31 01:36:21;;;;;;;;;;;;;;;11.01;46.71;95994.97;4997025;28;20044;-67
2022/10/31 01:38:46;;;;;;;;;;;;;;;10.90;46.79;95992.66;4996449;28;20568;-68
2022/10/31 01:41:12;;;;;;;;;;;;;;;10.57;48.39;95996.25;4978092;28;19970;-67
2022/10/31 01:43:49;;;;;;;;;;;;;;;10.46;48.27;95995.59;4997783;28;20040;-67
2022/10/31 01:46:15;;;;;;;;;;;;;;;10.75;48.79;96002.19;4995273;28;19993;-67
2022/10/31 01:48:41;;;;;;;;;;;;;;;10.96;47.45;95997.31;4981038;28;19992;-68
2022/10/31 01:51:06;;;;;;;;;;;;;;;11.00;48.74;95998.63;4996219;28;20006;-67
2022/10/31 01:53:31;;;;;;;;;;;;;;;11.10;48.60;95999.31;4995325;28;20035;-67
2022/10/31 01:55:57;;;;;;;;;;;;;;;11.23;48.05;95990.78;4995680;28;19996;-67
2022/10/31 01:58:23;;;;;;;;;;;;;;;11.33;46.92;95990.56;4981885;28;20370;-67
2022/10/31 02:00:49;;;;;;;;;;;;;;;11.34;45.41;95984.22;5000447;28;20478;-67
2022/10/31 02:03:14;;;;;;;;;;;;;;;11.29;45.07;95978.56;5000075;28;20613;-67
2022/10/31 02:05:39;;;;;;;;;;;;;;;11.26;45.20;95985.06;5000132;28;20073;-66
2022/10/31 02:08:11;;;;;;;;;;;;;;;11.23;45.57;95981.94;4984614;28;19990;-66
2022/10/31 02:10:36;;;;;;;;;;;;;;;11.20;45.55;95968.94;4997927;28;19990;-67
2022/10/31 02:13:02;;;;;;;;;;;;;;;11.20;45.27;95974.28;5001407;28;20039;-67
2022/10/31 02:15:27;;;;;;;;;;;;;;;11.24;45.40;95967.59;5000104;28;20004;-67
2022/10/31 02:17:53;;;;;;;;;;;;;;;11.25;45.40;95979.91;4991622;28;20076;-67
2022/10/31 02:20:22;;;;;;;;;;;;;;;11.26;45.23;95971.75;5000863;28;19973;-68
2022/10/31 02:22:47;;;;;;;;;;;;;;;11.25;45.48;95974.56;5000410;28;20005;-67
2022/10/31 02:25:31;;;;;;;;;;;;;;;11.22;45.23;95969.63;5000373;28;20021;-67
2022/10/31 02:28:02;;;;;;;;;;;;;;;11.17;45.34;95955.97;4999226;28;20005;-67
2022/10/31 02:30:30;;;;;;;;;;;;;;;11.18;45.53;95958.47;4980732;28;19990;-67
2022/10/31 02:33:08;;;;;;;;;;;;;;;11.27;45.27;95961.91;4983549;28;19993;-67
2022/10/31 02:35:40;;;;;;;;;;;;;;;11.20;45.48;95960.94;4997216;28;20532;-67
2022/10/31 02:38:24;;;;;;;;;;;;;;;11.12;45.81;95959.97;4999176;28;20400;-66
2022/10/31 02:40:50;;;;;;;;;;;;;;;11.17;45.57;95966.63;4999069;28;19966;-66
2022/10/31 02:43:29;;;;;;;;;;;;;;;11.16;45.69;95964.97;5000313;28;19989;-67
2022/10/31 02:45:57;;;;;;;;;;;;;;;11.16;45.30;95963.16;4998808;28;19977;-67
2022/10/31 02:48:29;;;;;;;;;;;;;;;11.15;45.09;95968.66;4996362;28;19974;-67
2022/10/31 02:51:03;;;;;;;;;;;;;;;11.13;45.18;95968.81;4999626;28;20009;-67
2022/10/31 02:53:35;;;;;;;;;;;;;;;11.17;45.30;95966.63;4983505;28;20035;-66
2022/10/31 02:56:14;;;;;;;;;;;;;;;11.19;45.19;95954.78;4999577;28;20119;-68
2022/10/31 02:58:43;;;;;;;;;;;;;;;11.16;45.41;95955.16;4998638;28;20525;-67
2022/10/31 03:01:11;;;;;;;;;;;;;;;11.17;45.83;95958.63;4999303;28;20017;-67
2022/10/31 03:03:42;;;;;;;;;;;;;;;11.16;46.02;95949.81;4999257;28;20433;-67
2022/10/31 03:06:20;;;;;;;;;;;;;;;11.22;46.03;95958.97;4981895;28;19990;-67
2022/10/31 03:08:55;;;;;;;;;;;;;;;11.27;46.30;95945.94;4999409;28;20060;-68
2022/10/31 03:11:22;;;;;;;;;;;;;;;11.26;46.18;95949.59;4994283;28;19996;-67
2022/10/31 03:14:11;;;;;;;;;;;;;;;11.32;45.90;95948.09;5000641;28;19986;-66
2022/10/31 03:16:42;;;;;;;;;;;;;;;11.31;45.76;95957.91;4993788;28;19980;-67
2022/10/31 03:19:15;;;;;;;;;;;;;;;11.35;46.08;95953.88;4999203;28;20602;-68
2022/10/31 03:21:44;;;;;;;;;;;;;;;11.26;47.28;95954.94;4998562;28;19970;-67
2022/10/31 03:24:10;;;;;;;;;;;;;;;11.31;47.20;95952.56;4998862;28;19969;-66
2022/10/31 03:26:35;;;;;;;;;;;;;;;11.36;47.13;95952.88;4999457;28;20136;-66
2022/10/31 03:29:02;;;;;;;;;;;;;;;11.43;46.70;95955.69;4998516;28;19977;-67
2022/10/31 03:31:29;;;;;;;;;;;;;;;11.49;46.14;95948.81;4982011;28;20000;-66
2022/10/31 03:33:54;;;;;;;;;;;;;;;11.44;45.64;95951.16;4995968;28;20037;-67
2022/10/31 03:36:19;;;;;;;;;;;;;;;11.41;45.42;95944.34;4998613;28;20016;-66
2022/10/31 03:38:45;;;;;;;;;;;;;;;11.33;45.64;95952.41;4994628;28;20345;-66
2022/10/31 03:41:11;;;;;;;;;;;;;;;11.27;45.65;95951.25;4997911;28;19976;-67
2022/10/31 03:43:38;;;;;;;;;;;;;;;11.18;45.70;95946.97;4998647;28;20275;-67
2022/10/31 03:46:03;;;;;;;;;;;;;;;11.12;46.65;95954.66;4979025;28;20039;-66
2022/10/31 03:48:28;;;;;;;;;;;;;;;11.13;46.24;95956.31;5000207;28;19974;-67
2022/10/31 03:50:56;;;;;;;;;;;;;;;11.15;46.14;95956.13;4992668;28;20016;-66
2022/10/31 03:53:26;;;;;;;;;;;;;;;11.13;45.86;95950.16;4996444;28;19986;-67
2022/10/31 03:55:52;;;;;;;;;;;;;;;11.10;45.89;95954.00;4981670;28;20470;-67
2022/10/31 03:58:25;;;;;;;;;;;;;;;11.07;45.68;95956.97;4992054;28;20378;-67
2022/10/31 04:00:50;;;;;;;;;;;;;;;11.08;45.50;95961.28;4998420;28;19980;-68
2022/10/31 04:03:17;;;;;;;;;;;;;;;11.03;45.43;95961.00;4994120;28;20198;-66
2022/10/31 04:05:42;;;;;;;;;;;;;;;10.99;45.57;95965.81;4995083;28;19976;-67
2022/10/31 04:08:09;;;;;;;;;;;;;;;11.04;45.63;95973.31;4996048;28;19982;-66
2022/10/31 04:10:34;;;;;;;;;;;;;;;11.02;45.96;95972.66;4981996;28;19990;-66
2022/10/31 04:13:10;;;;;;;;;;;;;;;11.01;48.34;95973.66;4982095;28;20469;-68
2022/10/31 04:15:35;;;;;;;;;;;;;;;11.03;47.80;95974.31;4994467;28;20092;-66
2022/10/31 04:18:01;;;;;;;;;;;;;;;11.06;48.17;95960.66;4994800;28;20116;-66
2022/10/31 04:20:30;;;;;;;;;;;;;;;11.15;48.00;95958.78;4997891;28;19978;-68
2022/10/31 04:22:55;;;;;;;;;;;;;;;11.23;47.67;95966.78;4996659;28;20021;-67
2022/10/31 04:25:20;;;;;;;;;;;;;;;11.26;46.89;95960.28;4998508;28;20011;-66
2022/10/31 04:27:45;;;;;;;;;;;;;;;11.25;47.03;95958.59;4998589;28;20101;-67
2022/10/31 04:30:11;;;;;;;;;;;;;;;11.23;46.78;95953.47;4997437;28;20233;-67
2022/10/31 04:32:36;;;;;;;;;;;;;;;11.19;46.93;95953.97;4998246;28;19994;-67
2022/10/31 04:35:01;;;;;;;;;;;;;;;11.09;47.37;95954.19;4997569;28;20472;-67
2022/10/31 04:37:26;;;;;;;;;;;;;;;11.07;47.25;95950.81;4997797;28;20005;-67
2022/10/31 04:39:52;;;;;;;;;;;;;;;11.14;47.38;95957.16;4995989;28;20040;-66
2022/10/31 04:42:17;;;;;;;;;;;;;;;11.16;46.94;95959.63;4996199;28;19982;-66
2022/10/31 04:44:42;;;;;;;;;;;;;;;11.16;47.07;95955.16;4997418;28;20052;-67
2022/10/31 04:47:07;;;;;;;;;;;;;;;11.13;46.62;95963.47;4979838;28;20190;-66
2022/10/31 04:49:33;;;;;;;;;;;;;;;11.19;46.24;95964.63;4996078;28;20072;-68
2022/10/31 04:51:58;;;;;;;;;;;;;;;11.13;46.11;95961.63;4997938;28;20522;-67
2022/10/31 04:54:23;;;;;;;;;;;;;;;11.06;46.16;95960.66;4996058;28;20478;-67
2022/10/31 04:56:48;;;;;;;;;;;;;;;11.05;45.85;95955.50;4996665;28;20398;-66
2022/10/31 04:59:14;;;;;;;;;;;;;;;10.97;45.33;95956.34;4997456;28;20683;-67
2022/10/31 05:01:39;;;;;;;;;;;;;;;10.90;45.78;95960.69;4995934;28;19974;-67
2022/10/31 05:04:04;;;;;;;;;;;;;;;10.75;46.38;95950.78;4997313;28;20268;-67
2022/10/31 05:06:30;;;;;;;;;;;;;;;10.74;46.01;95947.28;4997088;28;20029;-67
2022/10/31 05:08:55;;;;;;;;;;;;;;;10.76;46.47;95955.09;4996511;28;19978;-66
2022/10/31 05:11:20;;;;;;;;;;;;;;;10.75;46.70;95948.09;4997280;28;20039;-68
2022/10/31 05:13:45;;;;;;;;;;;;;;;10.72;47.27;95948.44;4997580;28;20024;-67
2022/10/31 05:16:11;;;;;;;;;;;;;;;10.73;47.24;95945.63;4996408;28;19982;-67
2022/10/31 05:18:36;;;;;;;;;;;;;;;10.59;48.15;95939.16;4996307;28;19994;-66
2022/10/31 05:21:01;;;;;;;;;;;;;;;10.53;48.54;95944.31;4997493;28;20362;-67
2022/10/31 05:23:26;;;;;;;;;;;;;;;10.52;49.09;95932.00;4997265;28;20051;-67
2022/10/31 05:25:51;;;;;;;;;;;;;;;10.52;48.81;95932.00;4996363;28;20115;-67
2022/10/31 05:28:17;;;;;;;;;;;;;;;10.57;48.29;95922.50;4997760;28;20017;-67
2022/10/31 05:30:42;;;;;;;;;;;;;;;10.59;47.73;95925.84;4996121;28;19993;-67
2022/10/31 05:33:07;;;;;;;;;;;;;;;10.58;47.44;95926.84;4996274;28;19994;-67
2022/10/31 05:35:32;;;;;;;;;;;;;;;10.51;47.77;95925.88;4996155;28;19990;-67
2022/10/31 05:37:58;;;;;;;;;;;;;;;10.31;49.21;95918.25;4995739;28;20424;-68
2022/10/31 05:40:23;;;;;;;;;;;;;;;10.28;49.65;95926.56;4996511;28;19982;-67
2022/10/31 05:42:52;;;;;;;;;;;;;;;10.15;50.43;95928.91;4996264;28;20192;-67
2022/10/31 05:45:17;;;;;;;;;;;;;;;10.13;51.14;95929.06;4996843;28;19974;-67
2022/10/31 05:47:49;;;;;;;;;;;;;;;10.06;51.98;95928.06;4996471;28;19997;-67
2022/10/31 05:50:14;;;;;;;;;;;;;;;9.53;53.40;95936.34;4995872;28;20029;-67
2022/10/31 05:52:39;;;;;;;;;;;;;;;9.66;53.65;95930.53;4996276;28;20068;-67
2022/10/31 05:55:05;;;;;;;;;;;;;;;9.99;53.11;95927.88;4995714;28;19994;-66
2022/10/31 05:57:31;;;;;;;;;;;;;;;10.30;51.74;95919.25;4996700;28;20343;-67
2022/10/31 05:59:56;;;;;;;;;;;;;;;10.44;50.82;95925.69;4980803;28;20257;-67
2022/10/31 06:02:21;;;;;;;;;;;;;;;10.55;50.38;95929.00;4995938;28;20169;-67
2022/10/31 06:04:47;;;;;;;;;;;;;;;10.61;50.10;95929.16;4996618;28;20663;-67
2022/10/31 06:07:12;;;;;;;;;;;;;;;10.66;49.99;95919.81;4994484;28;20440;-67
2022/10/31 06:09:37;;;;;;;;;;;;;;;10.69;49.23;95922.16;4996077;28;20024;-67
2022/10/31 06:12:03;;;;;;;;;;;;;;;10.64;50.14;95917.31;4995791;28;20200;-67
2022/10/31 06:14:28;;;;;;;;;;;;;;;10.33;52.83;95908.25;4994618;28;19990;-66
2022/10/31 06:16:56;;;;;;;;;;;;;;;10.25;53.52;95910.94;4996530;28;19974;-68
2022/10/31 06:19:21;;;;;;;;;;;;;;;10.19;54.12;95903.63;4993852;28;20456;-68
2022/10/31 06:21:46;;;;;;;;;;;;;;;10.14;54.26;95906.81;4996622;28;20023;-67
2022/10/31 06:24:11;;;;;;;;;;;;;;;10.15;54.48;95902.28;4994921;28;19986;-67
2022/10/31 06:26:37;;;;;;;;;;;;;;;10.12;54.42;95913.28;4993592;28;19994;-67
2022/10/31 06:29:02;;;;;;;;;;;;;;;10.19;54.09;95901.81;4995313;28;20434;-68
2022/10/31 06:31:27;;;;;;;;;;;;;;;10.22;53.98;95903.28;4995509;28;19990;-67
2022/10/31 06:33:53;;;;;;;;;;;;;;;10.28;53.54;95912.44;4990799;28;20029;-66
2022/10/31 06:36:18;;;;;;;;;;;;;;;10.34;53.21;95909.91;4995251;28;20459;-66
2022/10/31 06:38:43;;;;;;;;;;;;;;;10.37;53.35;95911.41;4992740;28;19994;-67
2022/10/31 06:41:08;;;;;;;;;;;;;;;10.39;52.95;95917.41;4995283;28;19997;-67
2022/10/31 06:43:33;;;;;;;;;;;;;;;10.44;53.00;95923.03;4985535;28;20185;-67
2022/10/31 06:46:01;;;;;;;;;;;;;;;10.51;52.80;95928.53;4997770;28;19996;-67
2022/10/31 06:48:26;;;;;;;;;;;;;;;10.55;52.52;95927.19;4997826;28;19970;-67
2022/10/31 06:50:52;;;;;;;;;;;;;;;10.59;52.22;95923.19;4996427;28;20087;-67
2022/10/31 06:53:17;;;;;;;;;;;;;;;10.62;52.30;95930.00;4995889;28;20044;-67
2022/10/31 06:55:42;;;;;;;;;;;;;;;10.69;52.04;95938.13;4994691;28;20039;-67
2022/10/31 06:58:08;;;;;;;;;;;;;;;10.72;51.63;95933.28;4997581;28;20422;-66
2022/10/31 07:00:33;;;;;;;;;;;;;;;10.82;51.42;95934.94;4997226;28;20055;-67
2022/10/31 07:02:59;;;;;;;;;;;;;;;10.88;51.24;95929.75;4997693;28;20603;-67
2022/10/31 07:05:24;;;;;;;;;;;;;;;10.93;51.19;95933.72;4993758;28;20158;-68
2022/10/31 07:07:53;;;;;;;;;;;;;;;10.99;50.94;95938.38;4998141;28;20187;-67
2022/10/31 07:10:18;;;;;;;;;;;;;;;11.08;50.67;95937.31;4996001;28;20186;-67
2022/10/31 07:12:44;;;;;;;;;;;;;;;11.21;50.23;95939.47;4997830;28;20308;-67
2022/10/31 07:15:09;;;;;;;;;;;;;;;11.29;49.89;95940.44;4996981;28;20051;-66
2022/10/31 07:17:34;;;;;;;;;;;;;;;11.38;49.77;95937.53;4997535;28;19977;-67
2022/10/31 07:19:59;;;;;;;;;;;;;;;11.45;49.48;95942.16;4996955;28;20254;-67
2022/10/31 07:22:25;;;;;;;;;;;;;;;11.60;49.21;95942.25;4997587;28;20385;-67
2022/10/31 07:24:50;;;;;;;;;;;;;;;11.70;48.82;95937.50;4997712;28;19978;-67
2022/10/31 07:27:15;;;;;;;;;;;;;;;11.86;48.56;95943.72;4995801;28;20635;-68
2022/10/31 07:29:40;;;;;;;;;;;;;;;12.01;47.97;95941.13;4995341;28;19970;-66
2022/10/31 07:32:06;;;;;;;;;;;;;;;12.17;47.62;95948.19;4996994;28;20031;-67
2022/10/31 07:34:31;;;;;;;;;;;;;;;12.36;47.29;95944.19;4997309;28;20091;-67
2022/10/31 07:36:56;;;;;;;;;;;;;;;12.51;46.96;95941.53;4995823;28;19985;-67
2022/10/31 07:39:21;;;;;;;;;;;;;;;12.66;46.59;95935.38;4995832;28;20000;-67
2022/10/31 07:41:46;;;;;;;;;;;;;;;12.85;46.37;95938.53;4997679;28;20673;-66
2022/10/31 07:44:12;;;;;;;;;;;;;;;13.04;45.57;95939.81;4997204;28;20035;-68
2022/10/31 07:46:37;;;;;;;;;;;;;;;13.21;45.39;95944.94;4996022;28;20161;-66
2022/10/31 07:49:02;;;;;;;;;;;;;;;13.38;44.75;95935.72;4996056;28;20057;-68
2022/10/31 07:51:27;;;;;;;;;;;;;;;13.54;44.61;95950.69;4995910;28;20037;-67
2022/10/31 07:53:53;;;;;;;;;;;;;;;13.70;44.10;95936.25;4995439;28;20001;-68
2022/10/31 07:56:18;;;;;;;;;;;;;;;13.80;43.81;95938.63;4997408;28;20519;-67
2022/10/31 07:58:43;;;;;;;;;;;;;;;13.97;43.95;95942.94;4996150;28;20478;-66
2022/10/31 08:01:08;;;;;;;;;;;;;;;14.07;43.25;95948.78;4997154;28;20393;-66
2022/10/31 08:03:34;;;;;;;;;;;;;;;14.21;43.12;95944.34;4996473;28;20036;-67
2022/10/31 08:05:59;;;;;;;;;;;;;;;14.40;42.58;95942.88;4996166;28;20021;-66
2022/10/31 08:08:24;;;;;;;;;;;;;;;14.57;42.40;95937.22;4996701;28;20094;-67
2022/10/31 08:10:49;;;;;;;;;;;;;;;14.68;42.29;95943.88;4997216;28;20098;-67
2022/10/31 08:13:15;;;;;;;;;;;;;;;14.85;42.30;95937.22;4995786;28;20233;-66
2022/10/31 08:15:41;;;;;;;;;;;;;;;15.12;41.95;95941.06;4996104;28;20362;-67
2022/10/31 08:18:09;;;;;;;;;;;;;;;15.33;40.70;95940.13;4996562;28;20512;-67
2022/10/31 08:20:34;;;;;;;;;;;;;;;15.43;40.78;95940.56;4998793;28;19972;-67
2022/10/31 08:23:00;;;;;;;;;;;;;;;15.56;41.01;95944.34;4996489;28;19990;-67
2022/10/31 08:25:26;;;;;;;;;;;;;;;15.66;40.52;95939.44;4995714;28;19981;-66
2022/10/31 08:27:51;;;;;;;;;;;;;;;15.89;40.06;95938.25;4996498;28;19990;-67
2022/10/31 08:30:17;;;;;;;;;;;;;;;15.78;40.12;95938.84;4994164;28;19997;-67
2022/10/31 08:32:42;;;;;;;;;;;;;;;15.86;39.90;95936.78;4996242;28;19997;-67
2022/10/31 08:35:07;;;;;;;;;;;;;;;16.09;39.72;95937.44;4996277;28;20119;-66
2022/10/31 08:37:33;;;;;;;;;;;;;;;16.20;39.16;95947.56;4996198;28;20059;-67
2022/10/31 08:39:58;;;;;;;;;;;;;;;16.48;39.17;95943.88;4981306;28;20052;-67
2022/10/31 08:42:23;;;;;;;;;;;;;;;16.45;38.84;95940.78;4997130;28;19992;-67
2022/10/31 08:44:48;;;;;;;;;;;;;;;16.44;38.78;95933.72;4997504;28;19973;-67
2022/10/31 08:47:14;;;;;;;;;;;;;;;16.56;38.83;95934.78;4995989;28;20002;-66
2022/10/31 08:49:39;;;;;;;;;;;;;;;16.72;38.34;95927.28;4998487;28;20124;-67
2022/10/31 08:52:04;;;;;;;;;;;;;;;16.98;38.15;95918.34;4997503;28;20634;-67
2022/10/31 08:54:29;;;;;;;;;;;;;;;17.17;37.58;95929.28;4997533;28;20052;-67
2022/10/31 08:56:55;;;;;;;;;;;;;;;17.36;37.02;95918.63;4996684;28;19991;-66
2022/10/31 08:59:20;;;;;;;;;;;;;;;17.14;37.33;95919.75;4995816;28;20633;-67
2022/10/31 09:01:45;;;;;;;;;;;;;;;17.27;37.23;95912.69;4998410;28;20636;-67
2022/10/31 09:04:11;;;;;;;;;;;;;;;17.20;37.37;95918.06;4997602;28;20044;-67
2022/10/31 09:06:36;;;;;;;;;;;;;;;17.62;36.35;95914.16;4995107;28;19997;-67
2022/10/31 09:09:01;;;;;;;;;;;;;;;17.76;36.49;95918.41;4996337;28;20424;-67
2022/10/31 09:11:26;;;;;;;;;;;;;;;17.98;36.15;95911.88;4997037;28;19993;-66
2022/10/31 09:13:52;;;;;;;;;;;;;;;18.02;36.21;95915.78;4996518;28;20032;-66
2022/10/31 09:16:17;;;;;;;;;;;;;;;18.03;35.43;95910.19;4995784;28;20262;-66
2022/10/31 09:18:42;;;;;;;;;;;;;;;18.00;35.44;95910.63;4997391;28;20155;-67
2022/10/31 09:21:08;;;;;;;;;;;;;;;18.21;35.56;95919.38;4996212;28;20003;-66
2022/10/31 09:23:33;;;;;;;;;;;;;;;18.35;35.09;95913.88;4996202;28;19993;-66
2022/10/31 09:25:59;;;;;;;;;;;;;;;18.37;35.42;95911.78;4995234;28;20004;-66
2022/10/31 09:28:24;;;;;;;;;;;;;;;18.43;35.08;95911.72;4996704;28;19975;-66
2022/10/31 09:30:50;;;;;;;;;;;;;;;18.68;34.26;95907.38;4995417;28;20101;-66
2022/10/31 09:33:15;;;;;;;;;;;;;;;18.71;34.34;95909.63;4996422;28;20103;-66
2022/10/31 09:35:41;;;;;;;;;;;;;;;18.91;33.99;95911.28;4993494;28;20681;-66
2022/10/31 09:38:08;;;;;;;;;;;;;;;18.98;33.93;95903.09;4994733;28;20128;-65
2022/10/31 09:40:33;;;;;;;;;;;;;;;19.29;33.66;95907.53;4977542;28;19989;-66
2022/10/31 09:43:04;;;;;;;;;;;;;;;19.25;33.85;95906.31;4997215;28;20701;-65
2022/10/31 09:45:41;;;;;;;;;;;;;;;19.28;33.72;95905.06;4995121;28;20251;-66
2022/10/31 09:48:09;;;;;;;;;;;;;;;19.02;33.50;95898.91;4993721;28;20003;-66
2022/10/31 09:50:57;;;;;;;;;;;;;;;19.31;33.40;95897.34;4994905;28;20016;-66
2022/10/31 09:53:32;;;;;;;;;;;;;;;19.51;33.10;95900.84;4987482;28;19984;-66
2022/10/31 09:55:57;;;;;;;;;;;;;;;19.69;32.69;95900.75;4994805;28;20373;-66
2022/10/31 09:58:23;;;;;;;;;;;;;;;19.43;33.29;95897.41;4988059;28;19999;-66
2022/10/31 10:00:48;;;;;;;;;;;;;;;19.33;33.47;95892.53;4990955;28;20021;-66
2022/10/31 10:03:17;;;;;;;;;;;;;;;19.24;33.12;95895.75;4977803;28;19990;-67
2022/10/31 10:05:46;;;;;;;;;;;;;;;19.29;33.51;95898.63;4993672;28;19971;-67
2022/10/31 10:08:22;;;;;;;;;;;;;;;19.42;33.12;95890.34;4977918;28;20007;-67
2022/10/31 10:10:47;;;;;;;;;;;;;;;19.54;32.77;95889.56;4985446;28;20254;-67
2022/10/31 10:13:25;;;;;;;;;;;;;;;19.57;32.42;95892.63;4996025;28;19985;-67
2022/10/31 10:15:54;;;;;;;;;;;;;;;19.57;32.40;95887.25;4993895;28;20002;-68
2022/10/31 10:18:22;;;;;;;;;;;;;;;19.62;32.51;95883.03;4992055;28;20128;-66
2022/10/31 10:20:50;;;;;;;;;;;;;;;19.95;32.16;95878.97;4999375;28;20056;-67
2022/10/31 10:23:18;;;;;;;;;;;;;;;20.12;32.10;95881.06;4999778;28;20068;-66
2022/10/31 10:25:44;;;;;;;;;;;;;;;19.92;31.39;95877.56;4997607;28;19972;-66
2022/10/31 10:28:16;;;;;;;;;;;;;;;19.91;31.71;95880.50;4995308;28;19981;-66
2022/10/31 10:30:43;;;;;;;;;;;;;;;19.58;32.67;95877.28;4996877;28;19986;-66
2022/10/31 10:33:09;;;;;;;;;;;;;;;19.87;32.32;95884.72;4996946;28;19987;-66
2022/10/31 10:35:36;;;;;;;;;;;;;;;19.99;32.07;95874.81;4992824;28;21232;-66
2022/10/31 10:38:10;;;;;;;;;;;;;;;19.73;31.60;95874.13;4980131;28;20448;-66
2022/10/31 10:40:35;;;;;;;;;;;;;;;19.86;31.80;95878.50;4993542;28;20460;-67
2022/10/31 10:43:22;;;;;;;;;;;;;;;19.98;31.96;95881.25;4997268;28;20086;-66
2022/10/31 10:49:19;;;;;;;;;;;;;;;20.06;31.85;95880.91;4967840;28;19968;-67
2022/10/31 10:51:47;;;;;;;;;;;;;;;20.01;31.89;95879.97;4952071;28;20415;-66
2022/10/31 10:54:13;;;;;;;;;;;;;;;20.24;31.88;95876.47;4983955;28;20059;-66
2022/10/31 10:56:51;;;;;;;;;;;;;;;20.33;31.60;95871.56;4995440;28;20349;-66
2022/10/31 10:59:17;;;;;;;;;;;;;;;20.43;31.42;95863.66;4990154;28;19999;-66
2022/10/31 11:01:42;;;;;;;;;;;;;;;20.43;31.09;95865.56;4996012;28;20178;-66
2022/10/31 11:04:27;;;;;;;;;;;;;;;20.28;31.33;95863.31;4995742;28;20009;-66
2022/10/31 11:06:56;;;;;;;;;;;;;;;20.10;31.58;95852.38;4993459;28;20042;-66
2022/10/31 11:09:21;;;;;;;;;;;;;;;20.30;31.49;95850.41;4999147;28;19967;-66
2022/10/31 11:11:47;;;;;;;;;;;;;;;20.68;30.56;95849.09;4994269;28;19987;-66
2022/10/31 11:14:12;;;;;;;;;;;;;;;20.74;30.63;95850.03;4996573;28;20000;-66
2022/10/31 11:16:38;;;;;;;;;;;;;;;20.90;30.62;95848.47;4997728;28;20461;-66
2022/10/31 11:19:16;;;;;;;;;;;;;;;20.73;30.42;95846.50;4995523;28;19984;-66
2022/10/31 11:21:41;;;;;;;;;;;;;;;20.81;30.67;95842.63;4997416;28;20316;-67
2022/10/31 11:24:06;;;;;;;;;;;;;;;21.12;30.26;95820.75;4997237;28;20239;-66
2022/10/31 11:26:34;;;;;;;;;;;;;;;21.16;30.20;95824.63;4997958;28;20017;-66
2022/10/31 11:29:02;;;;;;;;;;;;;;;21.32;30.06;95816.81;4998826;28;20271;-66
2022/10/31 11:31:27;;;;;;;;;;;;;;;21.57;30.02;95821.88;4998089;28;19977;-66
2022/10/31 11:33:59;;;;;;;;;;;;;;;21.79;29.69;95813.00;4993274;28;19994;-66
2022/10/31 11:36:25;;;;;;;;;;;;;;;21.94;29.45;95812.47;4982012;28;20347;-66
2022/10/31 11:38:51;;;;;;;;;;;;;;;22.01;28.95;95817.72;4979940;28;20487;-66
2022/10/31 11:41:26;;;;;;;;;;;;;;;21.66;29.25;95806.03;4992358;28;20005;-66
2022/10/31 11:43:55;;;;;;;;;;;;;;;21.90;30.01;95803.19;4996673;28;19984;-67
2022/10/31 11:46:41;;;;;;;;;;;;;;;22.25;28.67;95812.94;4979731;28;20389;-65
2022/10/31 11:49:11;;;;;;;;;;;;;;;22.53;28.16;95797.63;4994805;28;20429;-65
2022/10/31 11:51:36;;;;;;;;;;;;;;;22.78;28.44;95792.78;4979235;28;19989;-66
2022/10/31 11:54:02;;;;;;;;;;;;;;;22.91;28.42;95792.38;4989468;28;20022;-66
2022/10/31 11:56:27;;;;;;;;;;;;;;;23.03;27.83;95794.16;4992704;28;20359;-66
2022/10/31 11:58:56;;;;;;;;;;;;;;;23.01;27.18;95786.25;4994960;28;20490;-66
2022/10/31 12:01:31;;;;;;;;;;;;;;;23.12;27.63;95795.31;4995027;28;19966;-65
2022/10/31 12:04:06;;;;;;;;;;;;;;;23.64;27.04;95795.88;4998134;28;19977;-65
2022/10/31 12:06:36;;;;;;;;;;;;;;;23.94;26.19;95785.53;4994454;28;19977;-65
2022/10/31 12:09:01;;;;;;;;;;;;;;;23.98;26.31;95792.09;4995375;28;19969;-65
2022/10/31 12:11:29;;;;;;;;;;;;;;;24.17;25.97;95799.84;4997306;28;19983;-65
2022/10/31 12:14:13;;;;;;;;;;;;;;;23.80;26.64;95787.88;4996141;28;19982;-65
2022/10/31 12:16:39;;;;;;;;;;;;;;;23.47;26.86;95782.41;4996857;28;19950;-65
2022/10/31 12:19:10;;;;;;;;;;;;;;;23.44;26.84;95772.06;4995504;28;20375;-66
2022/10/31 12:21:38;;;;;;;;;;;;;;;23.25;27.15;95775.13;4996550;28;19963;-66
2022/10/31 12:24:06;;;;;;;;;;;;;;;23.31;27.29;95770.56;4996127;28;20293;-66
2022/10/31 12:26:35;;;;;;;;;;;;;;;23.76;26.21;95763.09;4994131;28;20089;-66
2022/10/31 12:29:00;;;;;;;;;;;;;;;23.87;26.55;95758.59;4997542;28;20313;-66
2022/10/31 12:31:44;;;;;;;;;;;;;;;23.87;26.48;95757.75;4995460;28;19968;-66
2022/10/31 12:34:24;;;;;;;;;;;;;;;23.67;26.65;95749.16;4991610;28;20475;-65
2022/10/31 12:36:53;;;;;;;;;;;;;;;23.60;26.91;95748.56;4977069;28;20043;-66
2022/10/31 12:39:18;;;;;;;;;;;;;;;23.24;26.88;95746.34;4996280;28;19972;-67
2022/10/31 12:42:04;;;;;;;;;;;;;;;23.22;27.32;95747.69;4995514;28;19961;-67
2022/10/31 12:44:40;;;;;;;;;;;;;;;22.84;27.42;95742.91;4979626;28;20396;-66
2022/10/31 12:47:05;;;;;;;;;;;;;;;22.90;27.86;95728.34;4987540;28;19979;-66
2022/10/31 12:49:49;;;;;;;;;;;;;;;23.12;27.56;95729.38;4997635;28;19958;-66
2022/10/31 12:52:14;;;;;;;;;;;;;;;22.80;27.92;95730.94;4979902;28;20043;-66